Aviation Digital Data Service (ADDS)

Output produced by METARs form (1529 UTC 20 March 2019)
found at http://www.aviationweather.gov/metar/data/
 
METAR text: VOCI 201500Z 00000KT 4000 HZ FEW015 SCT090 30/25 Q1011 NOSIG
Conditions at: VOCI (COCHIN INTL , IN) observed 1500 UTC 20 March 2019
Temperature: 30.0°C (86°F)
Dewpoint: 25.0°C (77°F) [RH = 75%]
Pressure (altimeter): 29.85 inches Hg (1011.0 mb)
Winds: calm
Visibility: 2.49 miles (4.01 km)
Ceiling: at least 12,000 feet AGL
Clouds: few clouds at 1500 feet AGL
scattered clouds at 9000 feet AGL
Weather: HZ  (haze)

METAR text: VOCI 201430Z 29005KT 4000 HZ SCT015 FEW025CB SCT090 30/25 Q1010 NOSIG
Conditions at: VOCI (COCHIN INTL , IN) observed 1430 UTC 20 March 2019
Temperature: 30.0°C (86°F)
Dewpoint: 25.0°C (77°F) [RH = 75%]
Pressure (altimeter): 29.82 inches Hg (1010.0 mb)
Winds: from the WNW (290 degrees) at 6 MPH (5 knots; 2.6 m/s)
Visibility: 2.49 miles (4.01 km)
Ceiling: at least 12,000 feet AGL
Clouds: scattered clouds at 1500 feet AGL
few clouds at 2500 feet AGL
scattered clouds at 9000 feet AGL
Weather: HZ  (haze)

METAR text: VOCI 201400Z 27008KT 4000 HZ SCT015 FEW025CB SCT090 30/25 Q1009 TEMPO TS
Conditions at: VOCI (COCHIN INTL , IN) observed 1400 UTC 20 March 2019
Temperature: 30.0°C (86°F)
Dewpoint: 25.0°C (77°F) [RH = 75%]
Pressure (altimeter): 29.79 inches Hg (1009.0 mb)
Winds: from the W (270 degrees) at 9 MPH (8 knots; 4.1 m/s)
Visibility: 2.49 miles (4.01 km)
Ceiling: at least 12,000 feet AGL
Clouds: scattered clouds at 1500 feet AGL
few clouds at 2500 feet AGL
scattered clouds at 9000 feet AGL
Weather: HZ  (haze)

METAR text: VOCI 201330Z 27007KT 4000 HZ SCT015 FEW025CB SCT090 30/25 Q1008 TEMPO TS
Conditions at: VOCI (COCHIN INTL , IN) observed 1330 UTC 20 March 2019
Temperature: 30.0°C (86°F)
Dewpoint: 25.0°C (77°F) [RH = 75%]
Pressure (altimeter): 29.76 inches Hg (1008.0 mb)
Winds: from the W (270 degrees) at 8 MPH (7 knots; 3.6 m/s)
Visibility: 2.49 miles (4.01 km)
Ceiling: at least 12,000 feet AGL
Clouds: scattered clouds at 1500 feet AGL
few clouds at 2500 feet AGL
scattered clouds at 9000 feet AGL
Weather: HZ  (haze)

METAR text: VOCI 201300Z 25006KT 5000 HZ FEW015 FEW025TCU 31/24 Q1008 BECMG 4000 HZ
Conditions at: VOCI (COCHIN INTL , IN) observed 1300 UTC 20 March 2019
Temperature: 31.0°C (88°F)
Dewpoint: 24.0°C (75°F) [RH = 66%]
Pressure (altimeter): 29.76 inches Hg (1008.0 mb)
Winds: from the WSW (250 degrees) at 7 MPH (6 knots; 3.1 m/s)
Visibility: 3 miles ( 5 km)
Ceiling: at least 12,000 feet AGL
Clouds: few clouds at 1500 feet AGL
few clouds at 2500 feet AGL
Weather: HZ  (haze)

METAR text: VOCI 201230Z 25009KT 5000 HZ FEW015 FEW025CB 31/24 Q1008 NOSIG
Conditions at: VOCI (COCHIN INTL , IN) observed 1230 UTC 20 March 2019
Temperature: 31.0°C (88°F)
Dewpoint: 24.0°C (75°F) [RH = 66%]
Pressure (altimeter): 29.76 inches Hg (1008.0 mb)
Winds: from the WSW (250 degrees) at 10 MPH (9 knots; 4.6 m/s)
Visibility: 3 miles ( 5 km)
Ceiling: at least 12,000 feet AGL
Clouds: few clouds at 1500 feet AGL
few clouds at 2500 feet AGL
Weather: HZ  (haze)

METAR text: VOCI 201200Z 25009KT 5000 HZ FEW015 SCT250 32/24 Q1007 NOSIG
Conditions at: VOCI (COCHIN INTL , IN) observed 1200 UTC 20 March 2019
Temperature: 32.0°C (90°F)
Dewpoint: 24.0°C (75°F) [RH = 63%]
Pressure (altimeter): 29.73 inches Hg (1007.0 mb)
Winds: from the WSW (250 degrees) at 10 MPH (9 knots; 4.6 m/s)
Visibility: 3 miles ( 5 km)
Ceiling: at least 12,000 feet AGL
Clouds: few clouds at 1500 feet AGL
scattered clouds at 25000 feet AGL
Weather: HZ  (haze)

METAR text: VOCI 201130Z 24010KT 5000 HZ FEW015 SCT250 32/24 Q1007 NOSIG
Conditions at: VOCI (COCHIN INTL , IN) observed 1130 UTC 20 March 2019
Temperature: 32.0°C (90°F)
Dewpoint: 24.0°C (75°F) [RH = 63%]
Pressure (altimeter): 29.73 inches Hg (1007.0 mb)
Winds: from the WSW (240 degrees) at 12 MPH (10 knots; 5.1 m/s)
Visibility: 3 miles ( 5 km)
Ceiling: at least 12,000 feet AGL
Clouds: few clouds at 1500 feet AGL
scattered clouds at 25000 feet AGL
Weather: HZ  (haze)

METAR text: VOCI 201100Z 27011KT 5000 HZ FEW015 SCT250 33/24 Q1007 NOSIG
Conditions at: VOCI (COCHIN INTL , IN) observed 1100 UTC 20 March 2019
Temperature: 33.0°C (91°F)
Dewpoint: 24.0°C (75°F) [RH = 59%]
Pressure (altimeter): 29.73 inches Hg (1007.0 mb)
Winds: from the W (270 degrees) at 13 MPH (11 knots; 5.7 m/s)
Visibility: 3 miles ( 5 km)
Ceiling: at least 12,000 feet AGL
Clouds: few clouds at 1500 feet AGL
scattered clouds at 25000 feet AGL
Weather: HZ  (haze)

METAR text: VOCI 201030Z 26013KT 5000 HZ FEW015 SCT250 33/24 Q1007 NOSIG
Conditions at: VOCI (COCHIN INTL , IN) observed 1030 UTC 20 March 2019
Temperature: 33.0°C (91°F)
Dewpoint: 24.0°C (75°F) [RH = 59%]
Pressure (altimeter): 29.73 inches Hg (1007.0 mb)
Winds: from the W (260 degrees) at 15 MPH (13 knots; 6.7 m/s)
Visibility: 3 miles ( 5 km)
Ceiling: at least 12,000 feet AGL
Clouds: few clouds at 1500 feet AGL
scattered clouds at 25000 feet AGL
Weather: HZ  (haze)

METAR text: VOCI 201000Z 29011KT 5000 HZ FEW012 SCT090 33/24 Q1007 NOSIG
Conditions at: VOCI (COCHIN INTL , IN) observed 1000 UTC 20 March 2019
Temperature: 33.0°C (91°F)
Dewpoint: 24.0°C (75°F) [RH = 59%]
Pressure (altimeter): 29.73 inches Hg (1007.0 mb)
Winds: from the WNW (290 degrees) at 13 MPH (11 knots; 5.7 m/s)
Visibility: 3 miles ( 5 km)
Ceiling: at least 12,000 feet AGL
Clouds: few clouds at 1200 feet AGL
scattered clouds at 9000 feet AGL
Weather: HZ  (haze)

METAR text: VOCI 200930Z 26010KT 5000 HZ FEW012 SCT090 34/24 Q1008 NOSIG
Conditions at: VOCI (COCHIN INTL , IN) observed 0930 UTC 20 March 2019
Temperature: 34.0°C (93°F)
Dewpoint: 24.0°C (75°F) [RH = 56%]
Pressure (altimeter): 29.76 inches Hg (1008.0 mb)
Winds: from the W (260 degrees) at 12 MPH (10 knots; 5.1 m/s)
Visibility: 3 miles ( 5 km)
Ceiling: at least 12,000 feet AGL
Clouds: few clouds at 1200 feet AGL
scattered clouds at 9000 feet AGL
Weather: HZ  (haze)

METAR text: VOCI 200730Z 27010KT 5000 HZ FEW012 SCT090 32/24 Q1010 NOSIG
Conditions at: VOCI (COCHIN INTL , IN) observed 0730 UTC 20 March 2019
Temperature: 32.0°C (90°F)
Dewpoint: 24.0°C (75°F) [RH = 63%]
Pressure (altimeter): 29.82 inches Hg (1010.0 mb)
Winds: from the W (270 degrees) at 12 MPH (10 knots; 5.1 m/s)
Visibility: 3 miles ( 5 km)
Ceiling: at least 12,000 feet AGL
Clouds: few clouds at 1200 feet AGL
scattered clouds at 9000 feet AGL
Weather: HZ  (haze)

METAR text: VOCI 200600Z 27006KT 5000 HZ FEW012 SCT020 33/23 Q1011 NOSIG
Conditions at: VOCI (COCHIN INTL , IN) observed 0600 UTC 20 March 2019
Temperature: 33.0°C (91°F)
Dewpoint: 23.0°C (73°F) [RH = 56%]
Pressure (altimeter): 29.85 inches Hg (1011.0 mb)
Winds: from the W (270 degrees) at 7 MPH (6 knots; 3.1 m/s)
Visibility: 3 miles ( 5 km)
Ceiling: at least 12,000 feet AGL
Clouds: few clouds at 1200 feet AGL
scattered clouds at 2000 feet AGL
Weather: HZ  (haze)

METAR text: VOCI 200530Z 27006KT 5000 HZ FEW012 SCT020 33/24 Q1012 NOSIG
Conditions at: VOCI (COCHIN INTL , IN) observed 0530 UTC 20 March 2019
Temperature: 33.0°C (91°F)
Dewpoint: 24.0°C (75°F) [RH = 59%]
Pressure (altimeter): 29.88 inches Hg (1012.0 mb)
Winds: from the W (270 degrees) at 7 MPH (6 knots; 3.1 m/s)
Visibility: 3 miles ( 5 km)
Ceiling: at least 12,000 feet AGL
Clouds: few clouds at 1200 feet AGL
scattered clouds at 2000 feet AGL
Weather: HZ  (haze)

METAR text: VOCI 200500Z 25004KT 4000 HZ FEW012 SCT020 32/24 Q1012 BECMG 5000 HZ
Conditions at: VOCI (COCHIN INTL , IN) observed 0500 UTC 20 March 2019
Temperature: 32.0°C (90°F)
Dewpoint: 24.0°C (75°F) [RH = 63%]
Pressure (altimeter): 29.88 inches Hg (1012.0 mb)
Winds: from the WSW (250 degrees) at 5 MPH (4 knots; 2.1 m/s)
Visibility: 2.49 miles (4.01 km)
Ceiling: at least 12,000 feet AGL
Clouds: few clouds at 1200 feet AGL
scattered clouds at 2000 feet AGL
Weather: HZ  (haze)

METAR text: VOCI 200430Z 22004KT 4000 BR FEW012 SCT020 32/24 Q1012 BECMG 5000 HZ
Conditions at: VOCI (COCHIN INTL , IN) observed 0430 UTC 20 March 2019
Temperature: 32.0°C (90°F)
Dewpoint: 24.0°C (75°F) [RH = 63%]
Pressure (altimeter): 29.88 inches Hg (1012.0 mb)
Winds: from the SW (220 degrees) at 5 MPH (4 knots; 2.1 m/s)
Visibility: 2.49 miles (4.01 km)
Ceiling: at least 12,000 feet AGL
Clouds: few clouds at 1200 feet AGL
scattered clouds at 2000 feet AGL
Weather: BR  (mist)

METAR text: VOCI 200400Z VRB04KT 3000 BR FEW012 SCT020 31/25 Q1012 BECMG 5000 HZ
Conditions at: VOCI (COCHIN INTL , IN) observed 0400 UTC 20 March 2019
Temperature: 31.0°C (88°F)
Dewpoint: 25.0°C (77°F) [RH = 71%]
Pressure (altimeter): 29.88 inches Hg (1012.0 mb)
Winds: variable direction winds at 5 MPH (4 knots; 2.1 m/s)
Visibility: 1.86 miles (2.99 km)
Ceiling: at least 12,000 feet AGL
Clouds: few clouds at 1200 feet AGL
scattered clouds at 2000 feet AGL
Weather: BR  (mist)

METAR text: VOCI 200330Z 09006KT 3000 BR FEW012 SCT080 30/25 Q1012 NOSIG
Conditions at: VOCI (COCHIN INTL , IN) observed 0330 UTC 20 March 2019
Temperature: 30.0°C (86°F)
Dewpoint: 25.0°C (77°F) [RH = 75%]
Pressure (altimeter): 29.88 inches Hg (1012.0 mb)
Winds: from the E (90 degrees) at 7 MPH (6 knots; 3.1 m/s)
Visibility: 1.86 miles (2.99 km)
Ceiling: at least 12,000 feet AGL
Clouds: few clouds at 1200 feet AGL
scattered clouds at 8000 feet AGL
Weather: BR  (mist)

METAR text: VOCI 200300Z 09006KT 3000 BR FEW012 SCT080 29/25 Q1011 NOSIG
Conditions at: VOCI (COCHIN INTL , IN) observed 0300 UTC 20 March 2019
Temperature: 29.0°C (84°F)
Dewpoint: 25.0°C (77°F) [RH = 79%]
Pressure (altimeter): 29.85 inches Hg (1011.0 mb)
Winds: from the E (90 degrees) at 7 MPH (6 knots; 3.1 m/s)
Visibility: 1.86 miles (2.99 km)
Ceiling: at least 12,000 feet AGL
Clouds: few clouds at 1200 feet AGL
scattered clouds at 8000 feet AGL
Weather: BR  (mist)

METAR text: VOCI 200230Z VRB04KT 2000 BR FEW012 SCT080 28/25 Q1011 BECMG 3000 BR
Conditions at: VOCI (COCHIN INTL , IN) observed 0230 UTC 20 March 2019
Temperature: 28.0°C (82°F)
Dewpoint: 25.0°C (77°F) [RH = 84%]
Pressure (altimeter): 29.85 inches Hg (1011.0 mb)
Winds: variable direction winds at 5 MPH (4 knots; 2.1 m/s)
Visibility: 1.24 miles (2.00 km)
Ceiling: at least 12,000 feet AGL
Clouds: few clouds at 1200 feet AGL
scattered clouds at 8000 feet AGL
Weather: BR  (mist)

METAR text: VOCI 200200Z 00000KT 2000 BR NSC 27/25 Q1011 NOSIG
Conditions at: VOCI (COCHIN INTL , IN) observed 0200 UTC 20 March 2019
Temperature: 27.0°C (81°F)
Dewpoint: 25.0°C (77°F) [RH = 89%]
Pressure (altimeter): 29.85 inches Hg (1011.0 mb)
Winds: calm
Visibility: 1.24 miles (2.00 km)
Ceiling: at least 12,000 feet AGL
Clouds: sky clear below 12,000 feet AGL
Weather: BR  (mist)

METAR text: VOCI 200130Z 00000KT 2000 BR NSC 26/25 Q1010 NOSIG
Conditions at: VOCI (COCHIN INTL , IN) observed 0130 UTC 20 March 2019
Temperature: 26.0°C (79°F)
Dewpoint: 25.0°C (77°F) [RH = 94%]
Pressure (altimeter): 29.82 inches Hg (1010.0 mb)
Winds: calm
Visibility: 1.24 miles (2.00 km)
Ceiling: at least 12,000 feet AGL
Clouds: sky clear below 12,000 feet AGL
Weather: BR  (mist)

METAR text: VOCI 200100Z 12002KT 2500 BR FEW010 SCT080 26/25 Q1009 TEMPO 2000 BR
Conditions at: VOCI (COCHIN INTL , IN) observed 0100 UTC 20 March 2019
Temperature: 26.0°C (79°F)
Dewpoint: 25.0°C (77°F) [RH = 94%]
Pressure (altimeter): 29.79 inches Hg (1009.0 mb)
Winds: from the ESE (120 degrees) at 2 MPH (2 knots; 1.0 m/s)
Visibility: 1.55 miles (2.49 km)
Ceiling: at least 12,000 feet AGL
Clouds: few clouds at 1000 feet AGL
scattered clouds at 8000 feet AGL
Weather: BR  (mist)

METAR text: VOCI 200030Z 12002KT 3000 BR FEW012 SCT080 26/25 Q1009 NOSIG
Conditions at: VOCI (COCHIN INTL , IN) observed 0030 UTC 20 March 2019
Temperature: 26.0°C (79°F)
Dewpoint: 25.0°C (77°F) [RH = 94%]
Pressure (altimeter): 29.79 inches Hg (1009.0 mb)
Winds: from the ESE (120 degrees) at 2 MPH (2 knots; 1.0 m/s)
Visibility: 1.86 miles (2.99 km)
Ceiling: at least 12,000 feet AGL
Clouds: few clouds at 1200 feet AGL
scattered clouds at 8000 feet AGL
Weather: BR  (mist)

METAR text: VOCI 200000Z 11002KT 3500 BR FEW012 SCT080 26/25 Q1009 TEMPO 3000 BR
Conditions at: VOCI (COCHIN INTL , IN) observed 0000 UTC 20 March 2019
Temperature: 26.0°C (79°F)
Dewpoint: 25.0°C (77°F) [RH = 94%]
Pressure (altimeter): 29.79 inches Hg (1009.0 mb)
Winds: from the ESE (110 degrees) at 2 MPH (2 knots; 1.0 m/s)
Visibility: 2.17 miles (3.49 km)
Ceiling: at least 12,000 feet AGL
Clouds: few clouds at 1200 feet AGL
scattered clouds at 8000 feet AGL
Weather: BR  (mist)

METAR text: VOCI 192330Z 11002KT 3500 BR FEW012 SCT080 27/25 Q1008 NOSIG
Conditions at: VOCI (COCHIN INTL , IN) observed 2330 UTC 19 March 2019
Temperature: 27.0°C (81°F)
Dewpoint: 25.0°C (77°F) [RH = 89%]
Pressure (altimeter): 29.76 inches Hg (1008.0 mb)
Winds: from the ESE (110 degrees) at 2 MPH (2 knots; 1.0 m/s)
Visibility: 2.17 miles (3.49 km)
Ceiling: at least 12,000 feet AGL
Clouds: few clouds at 1200 feet AGL
scattered clouds at 8000 feet AGL
Weather: BR  (mist)

METAR text: VOCI 192300Z 13002KT 3500 BR FEW012 SCT080 27/25 Q1008 NOSIG
Conditions at: VOCI (COCHIN INTL , IN) observed 2300 UTC 19 March 2019
Temperature: 27.0°C (81°F)
Dewpoint: 25.0°C (77°F) [RH = 89%]
Pressure (altimeter): 29.76 inches Hg (1008.0 mb)
Winds: from the SE (130 degrees) at 2 MPH (2 knots; 1.0 m/s)
Visibility: 2.17 miles (3.49 km)
Ceiling: at least 12,000 feet AGL
Clouds: few clouds at 1200 feet AGL
scattered clouds at 8000 feet AGL
Weather: BR  (mist)

METAR text: VOCI 192230Z 11002KT 3500 BR FEW012 SCT080 27/25 Q1008 NOSIG
Conditions at: VOCI (COCHIN INTL , IN) observed 2230 UTC 19 March 2019
Temperature: 27.0°C (81°F)
Dewpoint: 25.0°C (77°F) [RH = 89%]
Pressure (altimeter): 29.76 inches Hg (1008.0 mb)
Winds: from the ESE (110 degrees) at 2 MPH (2 knots; 1.0 m/s)
Visibility: 2.17 miles (3.49 km)
Ceiling: at least 12,000 feet AGL
Clouds: few clouds at 1200 feet AGL
scattered clouds at 8000 feet AGL
Weather: BR  (mist)

METAR text: VOCI 192200Z 11002KT 3500 BR FEW012 SCT080 27/25 Q1008 NOSIG
Conditions at: VOCI (COCHIN INTL , IN) observed 2200 UTC 19 March 2019
Temperature: 27.0°C (81°F)
Dewpoint: 25.0°C (77°F) [RH = 89%]
Pressure (altimeter): 29.76 inches Hg (1008.0 mb)
Winds: from the ESE (110 degrees) at 2 MPH (2 knots; 1.0 m/s)
Visibility: 2.17 miles (3.49 km)
Ceiling: at least 12,000 feet AGL
Clouds: few clouds at 1200 feet AGL
scattered clouds at 8000 feet AGL
Weather: BR  (mist)

METAR text: VOCI 192130Z 11002KT 3500 BR FEW012 SCT080 27/25 Q1008 NOSIG
Conditions at: VOCI (COCHIN INTL , IN) observed 2130 UTC 19 March 2019
Temperature: 27.0°C (81°F)
Dewpoint: 25.0°C (77°F) [RH = 89%]
Pressure (altimeter): 29.76 inches Hg (1008.0 mb)
Winds: from the ESE (110 degrees) at 2 MPH (2 knots; 1.0 m/s)
Visibility: 2.17 miles (3.49 km)
Ceiling: at least 12,000 feet AGL
Clouds: few clouds at 1200 feet AGL
scattered clouds at 8000 feet AGL
Weather: BR  (mist)

METAR text: VOCI 192100Z 11001KT 3500 BR FEW012 SCT090 27/25 Q1008 NOSIG
Conditions at: VOCI (COCHIN INTL , IN) observed 2100 UTC 19 March 2019
Temperature: 27.0°C (81°F)
Dewpoint: 25.0°C (77°F) [RH = 89%]
Pressure (altimeter): 29.76 inches Hg (1008.0 mb)
Winds: from the ESE (110 degrees) at 1 MPH (1 knots; 0.5 m/s)
Visibility: 2.17 miles (3.49 km)
Ceiling: at least 12,000 feet AGL
Clouds: few clouds at 1200 feet AGL
scattered clouds at 9000 feet AGL
Weather: BR  (mist)

METAR text: VOCI 192030Z 11002KT 4000 HZ FEW012 SCT090 28/25 Q1009 BECMG 3500 BR
Conditions at: VOCI (COCHIN INTL , IN) observed 2030 UTC 19 March 2019
Temperature: 28.0°C (82°F)
Dewpoint: 25.0°C (77°F) [RH = 84%]
Pressure (altimeter): 29.79 inches Hg (1009.0 mb)
Winds: from the ESE (110 degrees) at 2 MPH (2 knots; 1.0 m/s)
Visibility: 2.49 miles (4.01 km)
Ceiling: at least 12,000 feet AGL
Clouds: few clouds at 1200 feet AGL
scattered clouds at 9000 feet AGL
Weather: HZ  (haze)

METAR text: VOCI 192000Z 00000KT 4000 HZ FEW015 SCT090 28/25 Q1009 NOSIG
Conditions at: VOCI (COCHIN INTL , IN) observed 2000 UTC 19 March 2019
Temperature: 28.0°C (82°F)
Dewpoint: 25.0°C (77°F) [RH = 84%]
Pressure (altimeter): 29.79 inches Hg (1009.0 mb)
Winds: calm
Visibility: 2.49 miles (4.01 km)
Ceiling: at least 12,000 feet AGL
Clouds: few clouds at 1500 feet AGL
scattered clouds at 9000 feet AGL
Weather: HZ  (haze)

METAR text: VOCI 191930Z 00000KT 4000 HZ FEW015 SCT090 28/25 Q1010 NOSIG
Conditions at: VOCI (COCHIN INTL , IN) observed 1930 UTC 19 March 2019
Temperature: 28.0°C (82°F)
Dewpoint: 25.0°C (77°F) [RH = 84%]
Pressure (altimeter): 29.82 inches Hg (1010.0 mb)
Winds: calm
Visibility: 2.49 miles (4.01 km)
Ceiling: at least 12,000 feet AGL
Clouds: few clouds at 1500 feet AGL
scattered clouds at 9000 feet AGL
Weather: HZ  (haze)

METAR text: VOCI 191900Z 00000KT 4000 HZ FEW015 SCT090 28/25 Q1010 NOSIG
Conditions at: VOCI (COCHIN INTL , IN) observed 1900 UTC 19 March 2019
Temperature: 28.0°C (82°F)
Dewpoint: 25.0°C (77°F) [RH = 84%]
Pressure (altimeter): 29.82 inches Hg (1010.0 mb)
Winds: calm
Visibility: 2.49 miles (4.01 km)
Ceiling: at least 12,000 feet AGL
Clouds: few clouds at 1500 feet AGL
scattered clouds at 9000 feet AGL
Weather: HZ  (haze)

METAR text: VOCI 191800Z 00000KT 4000 HZ NSC 29/25 Q1011 NOSIG
Conditions at: VOCI (COCHIN INTL , IN) observed 1800 UTC 19 March 2019
Temperature: 29.0°C (84°F)
Dewpoint: 25.0°C (77°F) [RH = 79%]
Pressure (altimeter): 29.85 inches Hg (1011.0 mb)
Winds: calm
Visibility: 2.49 miles (4.01 km)
Ceiling: at least 12,000 feet AGL
Clouds: sky clear below 12,000 feet AGL
Weather: HZ  (haze)

METAR text: VOCI 191730Z 00000KT 4000 HZ NSC 29/25 Q1011 NOSIG
Conditions at: VOCI (COCHIN INTL , IN) observed 1730 UTC 19 March 2019
Temperature: 29.0°C (84°F)
Dewpoint: 25.0°C (77°F) [RH = 79%]
Pressure (altimeter): 29.85 inches Hg (1011.0 mb)
Winds: calm
Visibility: 2.49 miles (4.01 km)
Ceiling: at least 12,000 feet AGL
Clouds: sky clear below 12,000 feet AGL
Weather: HZ  (haze)

METAR text: VOCI 191700Z 00000KT 4000 HZ NSC 29/25 Q1011 NOSIG
Conditions at: VOCI (COCHIN INTL , IN) observed 1700 UTC 19 March 2019
Temperature: 29.0°C (84°F)
Dewpoint: 25.0°C (77°F) [RH = 79%]
Pressure (altimeter): 29.85 inches Hg (1011.0 mb)
Winds: calm
Visibility: 2.49 miles (4.01 km)
Ceiling: at least 12,000 feet AGL
Clouds: sky clear below 12,000 feet AGL
Weather: HZ  (haze)

METAR text: VOCI 191630Z 00000KT 4000 HZ NSC 29/25 Q1011 NOSIG
Conditions at: VOCI (COCHIN INTL , IN) observed 1630 UTC 19 March 2019
Temperature: 29.0°C (84°F)
Dewpoint: 25.0°C (77°F) [RH = 79%]
Pressure (altimeter): 29.85 inches Hg (1011.0 mb)
Winds: calm
Visibility: 2.49 miles (4.01 km)
Ceiling: at least 12,000 feet AGL
Clouds: sky clear below 12,000 feet AGL
Weather: HZ  (haze)

METAR text: VOCI 191600Z 00000KT 4000 HZ NSC 29/25 Q1010 NOSIG
Conditions at: VOCI (COCHIN INTL , IN) observed 1600 UTC 19 March 2019
Temperature: 29.0°C (84°F)
Dewpoint: 25.0°C (77°F) [RH = 79%]
Pressure (altimeter): 29.82 inches Hg (1010.0 mb)
Winds: calm
Visibility: 2.49 miles (4.01 km)
Ceiling: at least 12,000 feet AGL
Clouds: sky clear below 12,000 feet AGL
Weather: HZ  (haze)

METAR text: VOCI 191530Z 27004KT 4000 HZ NSC 29/24 Q1010 NOSIG
Conditions at: VOCI (COCHIN INTL , IN) observed 1530 UTC 19 March 2019
Temperature: 29.0°C (84°F)
Dewpoint: 24.0°C (75°F) [RH = 74%]
Pressure (altimeter): 29.82 inches Hg (1010.0 mb)
Winds: from the W (270 degrees) at 5 MPH (4 knots; 2.1 m/s)
Visibility: 2.49 miles (4.01 km)
Ceiling: at least 12,000 feet AGL
Clouds: sky clear below 12,000 feet AGL
Weather: HZ  (haze)

METAR text: VOCI 191500Z 27004KT 4000 HZ NSC 30/24 Q1009 NOSIG
Conditions at: VOCI (COCHIN INTL , IN) observed 1500 UTC 19 March 2019
Temperature: 30.0°C (86°F)
Dewpoint: 24.0°C (75°F) [RH = 70%]
Pressure (altimeter): 29.79 inches Hg (1009.0 mb)
Winds: from the W (270 degrees) at 5 MPH (4 knots; 2.1 m/s)
Visibility: 2.49 miles (4.01 km)
Ceiling: at least 12,000 feet AGL
Clouds: sky clear below 12,000 feet AGL
Weather: HZ  (haze)

METAR text: VOCI 191430Z VRB04KT 4000 HZ NSC 30/24 Q1009 NOSIG
Conditions at: VOCI (COCHIN INTL , IN) observed 1430 UTC 19 March 2019
Temperature: 30.0°C (86°F)
Dewpoint: 24.0°C (75°F) [RH = 70%]
Pressure (altimeter): 29.79 inches Hg (1009.0 mb)
Winds: variable direction winds at 5 MPH (4 knots; 2.1 m/s)
Visibility: 2.49 miles (4.01 km)
Ceiling: at least 12,000 feet AGL
Clouds: sky clear below 12,000 feet AGL
Weather: HZ  (haze)

METAR text: VOCI 191400Z VRB04KT 5000 HZ NSC 30/24 Q1008 BECMG 4000 HZ
Conditions at: VOCI (COCHIN INTL , IN) observed 1400 UTC 19 March 2019
Temperature: 30.0°C (86°F)
Dewpoint: 24.0°C (75°F) [RH = 70%]
Pressure (altimeter): 29.76 inches Hg (1008.0 mb)
Winds: variable direction winds at 5 MPH (4 knots; 2.1 m/s)
Visibility: 3 miles ( 5 km)
Ceiling: at least 12,000 feet AGL
Clouds: sky clear below 12,000 feet AGL
Weather: HZ  (haze)

METAR text: VOCI 191330Z 29006KT 5000 HZ NSC 31/24 Q1007 NOSIG
Conditions at: VOCI (COCHIN INTL , IN) observed 1330 UTC 19 March 2019
Temperature: 31.0°C (88°F)
Dewpoint: 24.0°C (75°F) [RH = 66%]
Pressure (altimeter): 29.73 inches Hg (1007.0 mb)
Winds: from the WNW (290 degrees) at 7 MPH (6 knots; 3.1 m/s)
Visibility: 3 miles ( 5 km)
Ceiling: at least 12,000 feet AGL
Clouds: sky clear below 12,000 feet AGL
Weather: HZ  (haze)

METAR text: VOCI 191300Z 29008KT 5000 HZ NSC 31/24 Q1007 NOSIG
Conditions at: VOCI (COCHIN INTL , IN) observed 1300 UTC 19 March 2019
Temperature: 31.0°C (88°F)
Dewpoint: 24.0°C (75°F) [RH = 66%]
Pressure (altimeter): 29.73 inches Hg (1007.0 mb)
Winds: from the WNW (290 degrees) at 9 MPH (8 knots; 4.1 m/s)
Visibility: 3 miles ( 5 km)
Ceiling: at least 12,000 feet AGL
Clouds: sky clear below 12,000 feet AGL
Weather: HZ  (haze)

METAR text: VOCI 191230Z 29012KT 5000 HZ NSC 32/24 Q1007 NOSIG
Conditions at: VOCI (COCHIN INTL , IN) observed 1230 UTC 19 March 2019
Temperature: 32.0°C (90°F)
Dewpoint: 24.0°C (75°F) [RH = 63%]
Pressure (altimeter): 29.73 inches Hg (1007.0 mb)
Winds: from the WNW (290 degrees) at 14 MPH (12 knots; 6.2 m/s)
Visibility: 3 miles ( 5 km)
Ceiling: at least 12,000 feet AGL
Clouds: sky clear below 12,000 feet AGL
Weather: HZ  (haze)

METAR text: VOCI 191200Z 29012KT 5000 HZ NSC 32/24 Q1007 NOSIG
Conditions at: VOCI (COCHIN INTL , IN) observed 1200 UTC 19 March 2019
Temperature: 32.0°C (90°F)
Dewpoint: 24.0°C (75°F) [RH = 63%]
Pressure (altimeter): 29.73 inches Hg (1007.0 mb)
Winds: from the WNW (290 degrees) at 14 MPH (12 knots; 6.2 m/s)
Visibility: 3 miles ( 5 km)
Ceiling: at least 12,000 feet AGL
Clouds: sky clear below 12,000 feet AGL
Weather: HZ  (haze)

METAR text: VOCI 191130Z 29012KT 5000 HZ FEW015 33/24 Q1006 NOSIG
Conditions at: VOCI (COCHIN INTL , IN) observed 1130 UTC 19 March 2019
Temperature: 33.0°C (91°F)
Dewpoint: 24.0°C (75°F) [RH = 59%]
Pressure (altimeter): 29.70 inches Hg (1006.0 mb)
Winds: from the WNW (290 degrees) at 14 MPH (12 knots; 6.2 m/s)
Visibility: 3 miles ( 5 km)
Ceiling: at least 12,000 feet AGL
Clouds: few clouds at 1500 feet AGL
Weather: HZ  (haze)

METAR text: VOCI 191100Z 27012KT 5000 HZ FEW015 33/24 Q1006 NOSIG
Conditions at: VOCI (COCHIN INTL , IN) observed 1100 UTC 19 March 2019
Temperature: 33.0°C (91°F)
Dewpoint: 24.0°C (75°F) [RH = 59%]
Pressure (altimeter): 29.70 inches Hg (1006.0 mb)
Winds: from the W (270 degrees) at 14 MPH (12 knots; 6.2 m/s)
Visibility: 3 miles ( 5 km)
Ceiling: at least 12,000 feet AGL
Clouds: few clouds at 1500 feet AGL
Weather: HZ  (haze)

METAR text: VOCI 191030Z 27012KT 5000 HZ FEW015 33/24 Q1006 NOSIG
Conditions at: VOCI (COCHIN INTL , IN) observed 1030 UTC 19 March 2019
Temperature: 33.0°C (91°F)
Dewpoint: 24.0°C (75°F) [RH = 59%]
Pressure (altimeter): 29.70 inches Hg (1006.0 mb)
Winds: from the W (270 degrees) at 14 MPH (12 knots; 6.2 m/s)
Visibility: 3 miles ( 5 km)
Ceiling: at least 12,000 feet AGL
Clouds: few clouds at 1500 feet AGL
Weather: HZ  (haze)

METAR text: VOCI 191000Z 27012KT 5000 HZ SCT015 SCT020 34/24 Q1006 NOSIG
Conditions at: VOCI (COCHIN INTL , IN) observed 1000 UTC 19 March 2019
Temperature: 34.0°C (93°F)
Dewpoint: 24.0°C (75°F) [RH = 56%]
Pressure (altimeter): 29.70 inches Hg (1006.0 mb)
Winds: from the W (270 degrees) at 14 MPH (12 knots; 6.2 m/s)
Visibility: 3 miles ( 5 km)
Ceiling: at least 12,000 feet AGL
Clouds: scattered clouds at 1500 feet AGL
scattered clouds at 2000 feet AGL
Weather: HZ  (haze)

METAR text: VOCI 190930Z 25010KT 5000 HZ SCT015 SCT020 34/24 Q1006 NOSIG
Conditions at: VOCI (COCHIN INTL , IN) observed 0930 UTC 19 March 2019
Temperature: 34.0°C (93°F)
Dewpoint: 24.0°C (75°F) [RH = 56%]
Pressure (altimeter): 29.70 inches Hg (1006.0 mb)
Winds: from the WSW (250 degrees) at 12 MPH (10 knots; 5.1 m/s)
Visibility: 3 miles ( 5 km)
Ceiling: at least 12,000 feet AGL
Clouds: scattered clouds at 1500 feet AGL
scattered clouds at 2000 feet AGL
Weather: HZ  (haze)

METAR text: VOCI 190900Z 25010KT 5000 HZ SCT015 SCT020 34/24 Q1007 NOSIG
Conditions at: VOCI (COCHIN INTL , IN) observed 0900 UTC 19 March 2019
Temperature: 34.0°C (93°F)
Dewpoint: 24.0°C (75°F) [RH = 56%]
Pressure (altimeter): 29.73 inches Hg (1007.0 mb)
Winds: from the WSW (250 degrees) at 12 MPH (10 knots; 5.1 m/s)
Visibility: 3 miles ( 5 km)
Ceiling: at least 12,000 feet AGL
Clouds: scattered clouds at 1500 feet AGL
scattered clouds at 2000 feet AGL
Weather: HZ  (haze)

METAR text: VOCI 190830Z 25006KT 5000 HZ SCT015 35/22 Q1007 NOSIG
Conditions at: VOCI (COCHIN INTL , IN) observed 0830 UTC 19 March 2019
Temperature: 35.0°C (95°F)
Dewpoint: 22.0°C (72°F) [RH = 47%]
Pressure (altimeter): 29.73 inches Hg (1007.0 mb)
Winds: from the WSW (250 degrees) at 7 MPH (6 knots; 3.1 m/s)
Visibility: 3 miles ( 5 km)
Ceiling: at least 12,000 feet AGL
Clouds: scattered clouds at 1500 feet AGL
Weather: HZ  (haze)

METAR text: VOCI 190800Z 18006KT 5000 HZ SCT015 35/22 Q1008 NOSIG
Conditions at: VOCI (COCHIN INTL , IN) observed 0800 UTC 19 March 2019
Temperature: 35.0°C (95°F)
Dewpoint: 22.0°C (72°F) [RH = 47%]
Pressure (altimeter): 29.76 inches Hg (1008.0 mb)
Winds: from the S (180 degrees) at 7 MPH (6 knots; 3.1 m/s)
Visibility: 3 miles ( 5 km)
Ceiling: at least 12,000 feet AGL
Clouds: scattered clouds at 1500 feet AGL
Weather: HZ  (haze)

METAR text: VOCI 190730Z 26005KT 5000 HZ FEW015 35/23 Q1008 NOSIG
Conditions at: VOCI (COCHIN INTL , IN) observed 0730 UTC 19 March 2019
Temperature: 35.0°C (95°F)
Dewpoint: 23.0°C (73°F) [RH = 50%]
Pressure (altimeter): 29.76 inches Hg (1008.0 mb)
Winds: from the W (260 degrees) at 6 MPH (5 knots; 2.6 m/s)
Visibility: 3 miles ( 5 km)
Ceiling: at least 12,000 feet AGL
Clouds: few clouds at 1500 feet AGL
Weather: HZ  (haze)

METAR text: VOCI 190700Z 26007KT 5000 HZ SCT015 34/22 Q1009 NOSIG
Conditions at: VOCI (COCHIN INTL , IN) observed 0700 UTC 19 March 2019
Temperature: 34.0°C (93°F)
Dewpoint: 22.0°C (72°F) [RH = 50%]
Pressure (altimeter): 29.79 inches Hg (1009.0 mb)
Winds: from the W (260 degrees) at 8 MPH (7 knots; 3.6 m/s)
Visibility: 3 miles ( 5 km)
Ceiling: at least 12,000 feet AGL
Clouds: scattered clouds at 1500 feet AGL
Weather: HZ  (haze)

METAR text: VOCI 190630Z 27004KT 5000 HZ SCT015 34/23 Q1010 NOSIG
Conditions at: VOCI (COCHIN INTL , IN) observed 0630 UTC 19 March 2019
Temperature: 34.0°C (93°F)
Dewpoint: 23.0°C (73°F) [RH = 53%]
Pressure (altimeter): 29.82 inches Hg (1010.0 mb)
Winds: from the W (270 degrees) at 5 MPH (4 knots; 2.1 m/s)
Visibility: 3 miles ( 5 km)
Ceiling: at least 12,000 feet AGL
Clouds: scattered clouds at 1500 feet AGL
Weather: HZ  (haze)

METAR text: VOCI 190600Z 23002KT 5000 HZ SCT015 34/23 Q1011 NOSIG
Conditions at: VOCI (COCHIN INTL , IN) observed 0600 UTC 19 March 2019
Temperature: 34.0°C (93°F)
Dewpoint: 23.0°C (73°F) [RH = 53%]
Pressure (altimeter): 29.85 inches Hg (1011.0 mb)
Winds: from the SW (230 degrees) at 2 MPH (2 knots; 1.0 m/s)
Visibility: 3 miles ( 5 km)
Ceiling: at least 12,000 feet AGL
Clouds: scattered clouds at 1500 feet AGL
Weather: HZ  (haze)

METAR text: VOCI 190530Z 18003KT 5000 HZ SCT015 33/23 Q1011 NOSIG
Conditions at: VOCI (COCHIN INTL , IN) observed 0530 UTC 19 March 2019
Temperature: 33.0°C (91°F)
Dewpoint: 23.0°C (73°F) [RH = 56%]
Pressure (altimeter): 29.85 inches Hg (1011.0 mb)
Winds: from the S (180 degrees) at 3 MPH (3 knots; 1.5 m/s)
Visibility: 3 miles ( 5 km)
Ceiling: at least 12,000 feet AGL
Clouds: scattered clouds at 1500 feet AGL
Weather: HZ  (haze)

METAR text: VOCI 190500Z 11003KT 5000 HZ SCT015 32/23 Q1012 NOSIG
Conditions at: VOCI (COCHIN INTL , IN) observed 0500 UTC 19 March 2019
Temperature: 32.0°C (90°F)
Dewpoint: 23.0°C (73°F) [RH = 59%]
Pressure (altimeter): 29.88 inches Hg (1012.0 mb)
Winds: from the ESE (110 degrees) at 3 MPH (3 knots; 1.5 m/s)
Visibility: 3 miles ( 5 km)
Ceiling: at least 12,000 feet AGL
Clouds: scattered clouds at 1500 feet AGL
Weather: HZ  (haze)

METAR text: VOCI 190430Z 12003KT 4500 HZ SCT015 32/24 Q1012 BECMG 5000 HZ
Conditions at: VOCI (COCHIN INTL , IN) observed 0430 UTC 19 March 2019
Temperature: 32.0°C (90°F)
Dewpoint: 24.0°C (75°F) [RH = 63%]
Pressure (altimeter): 29.88 inches Hg (1012.0 mb)
Winds: from the ESE (120 degrees) at 3 MPH (3 knots; 1.5 m/s)
Visibility: 2.80 miles (4.51 km)
Ceiling: at least 12,000 feet AGL
Clouds: scattered clouds at 1500 feet AGL
Weather: HZ  (haze)

METAR text: VOCI 190400Z 07004KT 4000 HZ SCT015 31/24 Q1012 BECMG 5000 HZ
Conditions at: VOCI (COCHIN INTL , IN) observed 0400 UTC 19 March 2019
Temperature: 31.0°C (88°F)
Dewpoint: 24.0°C (75°F) [RH = 66%]
Pressure (altimeter): 29.88 inches Hg (1012.0 mb)
Winds: from the ENE (70 degrees) at 5 MPH (4 knots; 2.1 m/s)
Visibility: 2.49 miles (4.01 km)
Ceiling: at least 12,000 feet AGL
Clouds: scattered clouds at 1500 feet AGL
Weather: HZ  (haze)

METAR text: VOCI 190330Z 04002KT 4000 HZ FEW015 30/25 Q1012 NOSIG
Conditions at: VOCI (COCHIN INTL , IN) observed 0330 UTC 19 March 2019
Temperature: 30.0°C (86°F)
Dewpoint: 25.0°C (77°F) [RH = 75%]
Pressure (altimeter): 29.88 inches Hg (1012.0 mb)
Winds: from the NE (40 degrees) at 2 MPH (2 knots; 1.0 m/s)
Visibility: 2.49 miles (4.01 km)
Ceiling: at least 12,000 feet AGL
Clouds: few clouds at 1500 feet AGL
Weather: HZ  (haze)

Forecast for: VOCI (COCHIN INTL , IN)
Text: TAF VOCI 201400Z 2015/2024 27010KT 4000 HZ /TS SCT015 FEW025CB SCT080
Forecast period: 1500 to 1800 UTC 20 March 2019
Forecast type: FROM: standard forecast or significant change
Winds: from the W (270 degrees) at 12 MPH (10 knots; 5.1 m/s)
Visibility: 2.49 miles (4.01 km)
Ceiling: at least 12,000 feet AGL
Clouds: scattered clouds at 1500 feet AGL
few clouds at 2500 feet AGL
scattered clouds at 8000 feet AGL
Weather: HZ TS  (haze, thunderstorm)
Text: BECMG 2018/2020 VRB05KT 3000 TS/BR FEW015 SCT080
Forecast period: 1800 UTC 20 March 2019 to 0000 UTC 21 March 2019
Forecast type: BECOMING: Conditions expected to become as follows by 2000 UTC 20 March 2019
Winds: variable direction winds at 6 MPH (5 knots; 2.6 m/s)
Visibility: 1.86 miles (2.99 km)
Ceiling: at least 12,000 feet AGL
Clouds: few clouds at 1500 feet AGL
scattered clouds at 8000 feet AGL
Weather: TS BR  (thunderstorm, mist)